createdAt,value
2022-12-08T00:00:12.434Z,0.43
2022-12-08T00:05:54.715Z,0.37
2022-12-08T00:10:58.651Z,0.27
2022-12-08T00:16:02.027Z,0.20
2022-12-08T00:21:05.448Z,0.18
2022-12-08T00:26:09.215Z,0.10
2022-12-08T00:31:12.714Z,0.01
2022-12-08T00:36:16.528Z,-0.03
2022-12-08T00:41:41.681Z,-0.08
2022-12-08T00:46:45.535Z,-0.19
2022-12-08T00:51:49.099Z,-0.22
2022-12-08T00:56:52.971Z,-0.19
2022-12-08T01:01:56.274Z,-0.19
2022-12-08T01:06:59.713Z,-0.21
2022-12-08T01:12:02.939Z,-0.24
2022-12-08T01:17:06.331Z,-0.26
2022-12-08T01:22:09.434Z,-0.29
2022-12-08T01:27:15.240Z,-0.34
2022-12-08T01:32:18.578Z,-0.41
2022-12-08T01:37:22.026Z,-0.41
2022-12-08T01:42:26.058Z,-0.40
2022-12-08T01:47:41.710Z,-0.40
2022-12-08T01:52:53.854Z,-0.47
2022-12-08T01:58:03.232Z,-0.48
2022-12-08T02:03:21.716Z,-0.45
2022-12-08T02:08:26.252Z,-0.43
2022-12-08T02:13:29.653Z,-0.44
2022-12-08T02:19:29.729Z,-0.50
2022-12-08T02:24:46.222Z,-0.43
2022-12-08T02:30:11.474Z,-0.42
2022-12-08T02:35:44.420Z,-0.45
2022-12-08T02:41:26.399Z,-0.44
2022-12-08T02:46:41.266Z,-0.41
2022-12-08T02:51:44.781Z,-0.42
2022-12-08T02:57:09.703Z,-0.46
2022-12-08T03:02:22.220Z,-0.50
2022-12-08T03:07:41.422Z,-0.48
2022-12-08T03:12:50.451Z,-0.48
2022-12-08T03:17:58.143Z,-0.47
2022-12-08T03:23:06.365Z,-0.48
2022-12-08T03:28:10.340Z,-0.47
2022-12-08T03:33:24.321Z,-0.46
2022-12-08T03:38:38.881Z,-0.48
2022-12-08T03:43:42.738Z,-0.52
2022-12-08T03:48:46.241Z,-0.53
2022-12-08T03:53:50.227Z,-0.49
2022-12-08T03:58:54.725Z,-0.50
2022-12-08T04:03:57.952Z,-0.50
2022-12-08T04:09:01.263Z,-0.45
2022-12-08T04:14:04.568Z,-0.40
2022-12-08T04:19:07.768Z,-0.35
2022-12-08T04:24:11.205Z,-0.38
2022-12-08T04:29:14.367Z,-0.40
2022-12-08T04:34:17.506Z,-0.37
2022-12-08T04:39:20.669Z,-0.42
2022-12-08T04:44:24.118Z,-0.47
2022-12-08T04:49:27.609Z,-0.53
2022-12-08T04:54:31.180Z,-0.58
2022-12-08T04:59:34.407Z,-0.59
2022-12-08T05:04:37.723Z,-0.56
2022-12-08T05:09:41.247Z,-0.59
2022-12-08T05:14:44.760Z,-0.66
2022-12-08T05:19:47.983Z,-0.66
2022-12-08T05:24:51.192Z,-0.72
2022-12-08T05:29:55.476Z,-0.79
2022-12-08T05:34:58.679Z,-0.87
2022-12-08T05:40:02.463Z,-0.95
2022-12-08T05:45:06.246Z,-0.99
2022-12-08T05:50:09.513Z,-1.02
2022-12-08T05:55:12.745Z,-1.08
2022-12-08T06:00:16.592Z,-1.11
2022-12-08T06:05:20.097Z,-1.19
2022-12-08T06:10:23.362Z,-1.25
2022-12-08T06:15:27.154Z,-1.36
2022-12-08T06:20:30.518Z,-1.48
2022-12-08T06:25:33.882Z,-1.62
2022-12-08T06:30:39.084Z,-1.70
2022-12-08T06:35:42.503Z,-1.71
2022-12-08T06:40:53.672Z,-1.60
2022-12-08T06:46:01.912Z,-1.46
2022-12-08T06:51:10.502Z,-1.33
2022-12-08T06:56:16.062Z,-1.23
2022-12-08T07:01:19.567Z,-1.13
2022-12-08T07:06:25.195Z,-0.99
2022-12-08T07:11:29.012Z,-0.90
2022-12-08T07:16:32.808Z,-0.81
2022-12-08T07:21:36.207Z,-0.76
2022-12-08T07:26:41.213Z,-0.65
2022-12-08T07:31:45.457Z,-0.59
2022-12-08T07:36:49.217Z,-0.55
2022-12-08T07:41:52.644Z,-0.41
2022-12-08T07:46:55.910Z,-0.30
2022-12-08T07:51:59.265Z,-0.21
2022-12-08T07:57:03.927Z,-0.08
2022-12-08T08:02:24.384Z,0.17
2022-12-08T08:07:31.656Z,0.32
2022-12-08T08:12:35.471Z,0.42
2022-12-08T08:17:39.046Z,0.55
2022-12-08T08:22:42.226Z,0.73
2022-12-08T08:27:46.974Z,0.84
2022-12-08T08:32:50.803Z,0.86
2022-12-08T08:37:55.321Z,0.87
2022-12-08T08:43:01.621Z,0.89
2022-12-08T08:48:05.395Z,0.91
2022-12-08T08:53:08.613Z,1.03
2022-12-08T08:58:12.007Z,1.16
2022-12-08T09:03:16.039Z,1.39
2022-12-08T09:08:20.288Z,1.61
2022-12-08T09:13:24.126Z,1.83
2022-12-08T09:18:27.212Z,1.90
2022-12-08T09:23:35.225Z,1.92
2022-12-08T09:28:39.206Z,1.92
2022-12-08T09:33:42.847Z,2.03
2022-12-08T09:38:47.122Z,2.20
2022-12-08T09:44:21.722Z,2.33
2022-12-08T09:49:39.077Z,2.52
2022-12-08T09:54:42.170Z,2.61
2022-12-08T09:59:54.004Z,2.58
2022-12-08T10:04:59.633Z,2.46
2022-12-08T10:10:08.108Z,2.36
2022-12-08T10:15:36.603Z,2.34
2022-12-08T10:20:45.811Z,2.34
2022-12-08T10:25:53.254Z,2.36
2022-12-08T10:30:56.826Z,2.39
2022-12-08T10:36:05.129Z,2.37
2022-12-08T10:41:11.604Z,2.38
2022-12-08T10:46:26.246Z,2.32
2022-12-08T10:51:40.944Z,2.33
2022-12-08T10:56:55.503Z,2.41
2022-12-08T11:02:01.382Z,2.45
2022-12-08T11:07:07.004Z,2.63
2022-12-08T11:12:15.679Z,2.75
2022-12-08T11:17:22.227Z,2.90
2022-12-08T11:22:29.783Z,2.91
2022-12-08T11:27:34.737Z,2.90
2022-12-08T11:32:41.849Z,2.98
2022-12-08T11:37:45.192Z,2.97
2022-12-08T11:43:20.369Z,2.88
2022-12-08T11:48:32.590Z,2.82
2022-12-08T11:54:00.745Z,2.86
2022-12-08T11:59:34.702Z,2.89
2022-12-08T12:05:01.619Z,2.88
2022-12-08T12:10:14.014Z,2.89
2022-12-08T12:15:31.547Z,2.90
2022-12-08T12:20:42.851Z,2.90
2022-12-08T12:26:09.624Z,2.90
2022-12-08T12:31:18.179Z,2.96
2022-12-08T12:36:22.640Z,2.93
2022-12-08T12:41:30.938Z,3.01
2022-12-08T12:46:37.546Z,3.17
2022-12-08T12:51:54.366Z,3.26
2022-12-08T12:57:21.275Z,3.33
2022-12-08T13:02:36.143Z,3.42
2022-12-08T13:07:49.784Z,3.44
2022-12-08T13:13:11.513Z,3.42
2022-12-08T13:18:26.886Z,3.35
2022-12-08T13:23:36.883Z,3.37
2022-12-08T13:28:59.064Z,3.37
2022-12-08T13:34:28.329Z,3.32
2022-12-08T13:39:54.138Z,3.32
2022-12-08T13:46:18.285Z,3.31
2022-12-08T13:57:02.680Z,3.33
2022-12-08T14:02:05.119Z,3.32
2022-12-08T14:07:09.909Z,3.27
2022-12-08T14:12:28.091Z,3.19
2022-12-08T14:17:36.498Z,3.17
2022-12-08T14:22:41.507Z,3.09
2022-12-08T14:27:46.551Z,3.01
2022-12-08T14:32:52.674Z,2.95
2022-12-08T14:38:06.201Z,2.86
2022-12-08T14:43:10.183Z,2.86
2022-12-08T14:48:38.989Z,2.84
2022-12-08T14:53:47.444Z,2.80
2022-12-08T14:59:09.121Z,2.78
2022-12-08T15:04:15.110Z,2.65
2022-12-08T15:09:36.130Z,2.59
2022-12-08T15:15:09.303Z,2.59
2022-12-08T15:20:35.107Z,2.56
2022-12-08T15:25:39.320Z,2.44
2022-12-08T15:30:42.784Z,2.27
2022-12-08T15:35:47.472Z,2.16
2022-12-08T15:40:52.325Z,2.12
2022-12-08T15:45:59.419Z,2.09
2022-12-08T15:51:04.843Z,2.07
2022-12-08T16:01:32.805Z,2.18
2022-12-08T16:12:19.604Z,2.07
2022-12-08T16:17:23.794Z,2.09
2022-12-08T16:22:54.159Z,2.08
2022-12-08T16:28:02.948Z,2.02
2022-12-08T16:33:11.785Z,1.94
2022-12-08T16:38:17.012Z,1.96
2022-12-08T16:43:20.910Z,1.93
2022-12-08T16:48:24.480Z,1.93
2022-12-08T16:53:28.958Z,1.93
2022-12-08T16:58:32.285Z,1.95
2022-12-08T17:03:35.734Z,2.02
2022-12-08T17:08:40.996Z,2.05
2022-12-08T17:13:45.233Z,2.06
2022-12-08T17:18:48.894Z,2.08
2022-12-08T17:23:52.275Z,1.99
2022-12-08T17:29:02.781Z,1.89
2022-12-08T17:34:11.893Z,1.83
2022-12-08T17:39:18.837Z,1.74
2022-12-08T17:44:23.325Z,1.66
2022-12-08T17:49:30.051Z,1.63
2022-12-08T17:54:34.282Z,1.59
2022-12-08T17:59:40.686Z,1.53
2022-12-08T18:04:47.386Z,1.50
2022-12-08T18:09:55.142Z,1.41
2022-12-08T18:15:01.154Z,1.35
2022-12-08T18:20:10.217Z,1.32
2022-12-08T18:25:15.636Z,1.30
2022-12-08T18:30:22.079Z,1.19
2022-12-08T18:35:32.970Z,1.16
2022-12-08T18:40:37.560Z,1.14
2022-12-08T18:45:44.458Z,1.14
2022-12-08T18:50:52.015Z,1.09
2022-12-08T18:55:56.841Z,1.04
2022-12-08T19:01:03.547Z,0.95
2022-12-08T19:06:10.060Z,0.86
2022-12-08T19:11:24.095Z,0.84
2022-12-08T19:16:29.684Z,0.84
2022-12-08T19:21:34.882Z,0.82
2022-12-08T19:26:42.760Z,0.84
2022-12-08T19:31:46.654Z,0.83
2022-12-08T19:36:50.910Z,0.83
2022-12-08T19:42:13.798Z,0.83
2022-12-08T19:47:17.395Z,0.83
2022-12-08T19:52:21.737Z,0.72
2022-12-08T19:57:27.458Z,0.65
2022-12-08T20:02:32.078Z,0.63
2022-12-08T20:07:36.723Z,0.61
2022-12-08T20:12:42.805Z,0.54
2022-12-08T20:17:50.838Z,0.48
2022-12-08T20:22:58.460Z,0.42
2022-12-08T20:28:03.570Z,0.33
2022-12-08T20:33:09.548Z,0.23
2022-12-08T20:38:17.312Z,0.23
2022-12-08T20:43:20.843Z,0.20
2022-12-08T20:48:25.377Z,0.12
2022-12-08T20:53:29.290Z,0.08
2022-12-08T20:58:33.065Z,0.07
2022-12-08T21:03:37.185Z,0.02
2022-12-08T21:08:41.841Z,-0.04
2022-12-08T21:13:47.067Z,0.02
2022-12-08T21:18:51.104Z,0.00
2022-12-08T21:23:54.208Z,-0.05
2022-12-08T21:28:59.389Z,-0.09
2022-12-08T21:34:04.146Z,-0.04
2022-12-08T21:39:13.361Z,-0.02
2022-12-08T21:44:20.574Z,-0.01
2022-12-08T21:49:23.912Z,-0.03
2022-12-08T21:54:27.750Z,-0.02
2022-12-08T21:59:31.843Z,0.05
2022-12-08T22:04:38.887Z,0.09
2022-12-08T22:09:42.739Z,0.13
2022-12-08T22:14:46.318Z,0.21
2022-12-08T22:19:50.022Z,0.23
2022-12-08T22:24:56.893Z,0.15
2022-12-08T22:30:00.338Z,0.09
2022-12-08T22:35:04.226Z,0.04
2022-12-08T22:40:08.795Z,-0.00
2022-12-08T22:45:12.675Z,-0.06
2022-12-08T22:50:16.337Z,-0.02
2022-12-08T22:55:19.992Z,0.07
2022-12-08T23:00:23.763Z,0.10
2022-12-08T23:05:28.466Z,0.07
2022-12-08T23:10:34.011Z,0.07
2022-12-08T23:15:39.234Z,0.11
2022-12-08T23:20:43.680Z,0.09
2022-12-08T23:25:48.910Z,0.09
2022-12-08T23:30:52.897Z,0.12
2022-12-08T23:35:58.393Z,0.19
2022-12-08T23:41:04.797Z,0.25
2022-12-08T23:46:09.411Z,0.35
2022-12-08T23:51:15.491Z,0.40
2022-12-08T23:56:19.421Z,0.44
